Time;durP1;ratioP1;P1;durP2;ratioP2;P2;SDS_P1;SDS_P2;PMS_P1;PMS_P2;Temp;Humidity;BMP_temperature;BMP_pressure;BME280_temperature;BME280_humidity;BME280_pressure;Samples;Min_cycle;Max_cycle;Signal;HPM_P1;HPM_P2
2022/08/05 00:01:45;;;;;;;4.10;3.25;;;;;;;;;;4445913;32;20802;-86
2022/08/05 00:04:11;;;;;;;3.33;3.03;;;;;;;;;;4447061;32;20263;-86
2022/08/05 00:06:36;;;;;;;6.22;3.65;;;;;;;;;;4447446;32;20651;-86
2022/08/05 00:09:03;;;;;;;4.07;3.12;;;;;;;;;;4447066;32;20220;-85
2022/08/05 00:11:29;;;;;;;8.02;3.47;;;;;;;;;;4442263;32;20298;-85
2022/08/05 00:13:54;;;;;;;4.35;3.30;;;;;;;;;;4431431;32;20209;-86
2022/08/05 00:16:21;;;;;;;6.90;3.65;;;;;;;;;;4431260;32;20547;-86
2022/08/05 00:18:48;;;;;;;8.05;3.80;;;;;;;;;;4417406;32;20392;-86
2022/08/05 00:21:16;;;;;;;4.47;3.72;;;;;;;;;;4431566;32;20298;-85
2022/08/05 00:23:43;;;;;;;6.07;3.08;;;;;;;;;;4431662;32;20347;-86
2022/08/05 00:26:09;;;;;;;4.07;3.67;;;;;;;;;;4417602;32;20581;-86
2022/08/05 00:28:35;;;;;;;8.00;3.78;;;;;;;;;;4431411;32;20212;-86
2022/08/05 00:31:01;;;;;;;4.15;3.22;;;;;;;;;;4430830;32;20229;-85
2022/08/05 00:33:27;;;;;;;4.28;3.60;;;;;;;;;;4417304;32;20236;-86
2022/08/05 00:35:53;;;;;;;4.57;3.80;;;;;;;;;;4431503;32;20255;-86
2022/08/05 00:38:18;;;;;;;4.30;3.90;;;;;;;;;;4431131;32;20515;-86
2022/08/05 00:40:53;;;;;;;6.37;3.62;;;;;;;;;;4430939;32;20578;-86
2022/08/05 00:43:18;;;;;;;4.10;3.70;;;;;;;;;;4431080;32;20204;-86
2022/08/05 00:45:46;;;;;;;9.15;4.40;;;;;;;;;;4416037;32;20236;-85
2022/08/05 00:48:14;;;;;;;5.80;3.53;;;;;;;;;;4416562;32;20304;-86
2022/08/05 00:50:41;;;;;;;6.05;3.55;;;;;;;;;;4431644;32;20304;-86
2022/08/05 00:53:07;;;;;;;7.28;3.80;;;;;;;;;;4438409;32;20362;-85
2022/08/05 00:55:33;;;;;;;5.28;3.55;;;;;;;;;;4448112;32;20408;-85
2022/08/05 00:57:59;;;;;;;4.87;3.37;;;;;;;;;;4448396;32;20208;-86
2022/08/05 01:00:26;;;;;;;11.02;4.35;;;;;;;;;;4448458;32;20263;-85
2022/08/05 01:02:51;;;;;;;4.07;3.65;;;;;;;;;;4447934;32;20204;-86
2022/08/05 01:05:17;;;;;;;7.80;3.80;;;;;;;;;;4448026;32;20255;-85
2022/08/05 01:07:42;;;;;;;5.60;3.50;;;;;;;;;;4447585;32;20318;-86
2022/08/05 01:10:09;;;;;;;9.32;4.57;;;;;;;;;;4447435;32;20197;-86
2022/08/05 01:12:36;;;;;;;12.05;4.22;;;;;;;;;;4434901;32;20326;-85
2022/08/05 01:15:05;;;;;;;7.07;4.00;;;;;;;;;;4430861;32;20357;-86
2022/08/05 01:17:37;;;;;;;8.00;4.10;;;;;;;;;;4406402;32;20357;-85
2022/08/05 01:20:12;;;;;;;9.65;3.97;;;;;;;;;;4432581;32;20331;-87
2022/08/05 01:22:55;;;;;;;17.08;5.12;;;;;;;;;;4432102;32;20237;-87
2022/08/05 01:25:48;;;;;;;12.18;4.78;;;;;;;;;;4431810;32;20229;-87
2022/08/05 01:28:25;;;;;;;3.97;3.67;;;;;;;;;;4432556;32;20224;-85
2022/08/05 01:31:29;;;;;;;5.35;4.43;;;;;;;;;;4434888;32;20533;-85
2022/08/05 01:34:07;;;;;;;6.50;4.32;;;;;;;;;;4436631;32;20232;-85
2022/08/05 01:36:39;;;;;;;4.45;4.05;;;;;;;;;;4434696;32;20266;-85
2022/08/05 01:39:04;;;;;;;5.68;4.37;;;;;;;;;;4430980;32;20201;-85
2022/08/05 01:41:33;;;;;;;5.03;3.65;;;;;;;;;;4431396;32;20240;-84
2022/08/05 01:44:01;;;;;;;7.00;4.05;;;;;;;;;;4430695;32;20245;-85
2022/08/05 01:46:29;;;;;;;9.40;4.10;;;;;;;;;;4416719;32;20680;-84
2022/08/05 01:48:57;;;;;;;4.80;3.37;;;;;;;;;;4430625;32;20527;-84
2022/08/05 01:51:23;;;;;;;8.93;3.78;;;;;;;;;;4416683;32;20236;-85
2022/08/05 01:53:51;;;;;;;3.58;2.72;;;;;;;;;;4430122;32;20252;-84
2022/08/05 01:56:19;;;;;;;5.22;3.72;;;;;;;;;;4416399;32;20417;-85
2022/08/05 01:58:46;;;;;;;13.32;4.82;;;;;;;;;;4432193;32;20289;-84
2022/08/05 02:01:13;;;;;;;6.65;3.95;;;;;;;;;;4433415;32;20233;-85
2022/08/05 02:03:47;;;;;;;5.53;3.37;;;;;;;;;;4433414;32;21008;-85
2022/08/05 02:06:14;;;;;;;5.15;4.00;;;;;;;;;;4433870;32;20641;-85
2022/08/05 02:08:39;;;;;;;5.45;3.78;;;;;;;;;;4433293;32;20315;-85
2022/08/05 02:11:11;;;;;;;5.30;4.00;;;;;;;;;;4433072;32;20756;-85
2022/08/05 02:13:43;;;;;;;6.30;3.65;;;;;;;;;;4432778;32;20371;-85
2022/08/05 02:16:49;;;;;;;4.45;3.30;;;;;;;;;;4433208;32;20216;-85
2022/08/05 02:19:36;;;;;;;5.10;3.92;;;;;;;;;;4355521;32;20257;-85
2022/08/05 02:22:31;;;;;;;7.45;4.60;;;;;;;;;;4355709;32;20361;-85
2022/08/05 02:25:04;;;;;;;8.60;4.50;;;;;;;;;;4419340;32;20284;-85
2022/08/05 02:27:34;;;;;;;5.87;4.20;;;;;;;;;;4444400;32;20251;-86
2022/08/05 02:30:01;;;;;;;12.05;4.40;;;;;;;;;;4447806;32;20598;-84
2022/08/05 02:32:29;;;;;;;7.65;4.30;;;;;;;;;;4448284;32;20351;-85
2022/08/05 02:35:00;;;;;;;6.95;4.28;;;;;;;;;;4448361;32;20339;-85
2022/08/05 02:37:27;;;;;;;5.57;4.55;;;;;;;;;;4448725;32;20244;-84
2022/08/05 02:39:54;;;;;;;4.78;3.65;;;;;;;;;;4434344;32;20228;-85
2022/08/05 02:42:20;;;;;;;6.47;4.43;;;;;;;;;;4448243;32;20822;-85
2022/08/05 02:44:47;;;;;;;7.87;4.62;;;;;;;;;;4448234;32;20359;-85
2022/08/05 02:47:14;;;;;;;5.15;3.53;;;;;;;;;;4434436;32;20240;-85
2022/08/05 02:49:41;;;;;;;6.72;4.65;;;;;;;;;;4438441;32;20708;-85
2022/08/05 02:52:12;;;;;;;7.03;4.53;;;;;;;;;;4432864;32;20299;-85
2022/08/05 02:54:39;;;;;;;9.07;4.28;;;;;;;;;;4418665;32;20348;-85
2022/08/05 02:57:08;;;;;;;6.93;5.20;;;;;;;;;;4432922;32;20212;-85
2022/08/05 02:59:34;;;;;;;5.57;4.20;;;;;;;;;;4432458;32;20247;-84
2022/08/05 03:02:01;;;;;;;7.00;4.93;;;;;;;;;;4432869;32;20205;-85
2022/08/05 03:04:28;;;;;;;6.57;5.05;;;;;;;;;;4432513;32;20756;-85
2022/08/05 03:06:54;;;;;;;6.50;5.00;;;;;;;;;;4432575;32;20213;-85
2022/08/05 03:09:19;;;;;;;6.32;4.62;;;;;;;;;;4431898;32;20243;-85
2022/08/05 03:11:45;;;;;;;6.15;5.25;;;;;;;;;;4438499;32;20240;-85
2022/08/05 03:14:10;;;;;;;7.53;5.00;;;;;;;;;;4445645;32;20287;-84
2022/08/05 03:16:36;;;;;;;7.53;5.45;;;;;;;;;;4448144;32;20303;-85
2022/08/05 03:19:03;;;;;;;11.40;5.30;;;;;;;;;;4447684;32;20228;-84
2022/08/05 03:21:28;;;;;;;7.35;5.47;;;;;;;;;;4448009;32;20274;-84
2022/08/05 03:23:54;;;;;;;6.57;4.90;;;;;;;;;;4447618;32;20224;-84
2022/08/05 03:26:20;;;;;;;6.62;4.78;;;;;;;;;;4433077;32;20250;-85
2022/08/05 03:28:45;;;;;;;7.28;5.32;;;;;;;;;;4447284;32;21075;-85
2022/08/05 03:31:12;;;;;;;7.82;4.82;;;;;;;;;;4447463;32;20232;-84
2022/08/05 03:33:37;;;;;;;6.65;4.62;;;;;;;;;;4447481;32;20369;-84
2022/08/05 03:36:04;;;;;;;9.00;4.90;;;;;;;;;;4447941;32;20205;-85
2022/08/05 03:38:30;;;;;;;9.57;5.12;;;;;;;;;;4447427;32;20314;-85
2022/08/05 03:40:55;;;;;;;7.75;5.43;;;;;;;;;;4447512;32;20216;-85
2022/08/05 03:43:24;;;;;;;7.15;4.82;;;;;;;;;;4446870;32;20248;-84
2022/08/05 03:45:53;;;;;;;8.05;5.70;;;;;;;;;;4424181;32;20387;-85
2022/08/05 03:48:19;;;;;;;6.55;4.68;;;;;;;;;;4431697;32;20269;-85
2022/08/05 03:50:54;;;;;;;6.78;5.20;;;;;;;;;;4432019;32;20225;-85
2022/08/05 03:53:34;;;;;;;7.72;5.18;;;;;;;;;;4431779;32;20216;-85
2022/08/05 03:56:20;;;;;;;8.77;6.53;;;;;;;;;;4417853;32;20245;-85
2022/08/05 03:58:49;;;;;;;8.68;6.25;;;;;;;;;;4431686;32;20295;-85
2022/08/05 04:01:18;;;;;;;6.78;5.95;;;;;;;;;;4431697;32;20225;-85
2022/08/05 04:03:46;;;;;;;9.05;6.03;;;;;;;;;;4431774;32;20205;-84
2022/08/05 04:06:12;;;;;;;6.55;4.93;;;;;;;;;;4432001;32;20225;-85
2022/08/05 04:08:38;;;;;;;9.48;5.93;;;;;;;;;;4431493;32;20740;-84
2022/08/05 04:11:06;;;;;;;6.15;5.12;;;;;;;;;;4433668;32;20220;-85
2022/08/05 04:13:32;;;;;;;8.35;6.80;;;;;;;;;;4446449;32;20258;-85
2022/08/05 04:15:58;;;;;;;9.30;6.87;;;;;;;;;;4447171;32;20264;-85
2022/08/05 04:18:24;;;;;;;14.30;5.62;;;;;;;;;;4446862;32;20211;-85
2022/08/05 04:20:56;;;;;;;12.37;5.65;;;;;;;;;;4446869;32;20569;-85
2022/08/05 04:23:23;;;;;;;8.48;5.28;;;;;;;;;;4447084;32;20263;-85
2022/08/05 04:25:49;;;;;;;8.13;6.10;;;;;;;;;;4432182;32;20236;-85
2022/08/05 04:28:15;;;;;;;11.88;5.20;;;;;;;;;;4446120;32;20235;-85
2022/08/05 04:30:40;;;;;;;9.07;5.53;;;;;;;;;;4446715;32;20878;-85
2022/08/05 04:33:06;;;;;;;12.88;5.32;;;;;;;;;;4446750;32;20276;-85
2022/08/05 04:35:31;;;;;;;6.90;4.80;;;;;;;;;;4446824;32;20251;-85
2022/08/05 04:37:56;;;;;;;5.90;5.40;;;;;;;;;;4446699;32;20246;-84
2022/08/05 04:40:22;;;;;;;9.85;5.37;;;;;;;;;;4446174;32;20314;-84
2022/08/05 04:42:49;;;;;;;12.68;5.05;;;;;;;;;;4432361;32;20253;-84
2022/08/05 04:45:15;;;;;;;5.25;4.62;;;;;;;;;;4430802;32;20278;-84
2022/08/05 04:47:40;;;;;;;12.55;4.57;;;;;;;;;;4430957;32;20220;-85
2022/08/05 04:50:06;;;;;;;9.20;4.93;;;;;;;;;;4429713;32;20372;-83
2022/08/05 04:52:32;;;;;;;14.77;5.53;;;;;;;;;;4430998;32;20246;-85
2022/08/05 04:54:57;;;;;;;18.85;5.40;;;;;;;;;;4430631;32;20224;-85
2022/08/05 04:57:24;;;;;;;9.63;4.53;;;;;;;;;;4430660;32;20244;-84
2022/08/05 04:59:49;;;;;;;8.15;5.32;;;;;;;;;;4430700;32;20706;-84
2022/08/05 05:02:15;;;;;;;12.45;5.37;;;;;;;;;;4430563;32;20220;-84
2022/08/05 05:04:40;;;;;;;8.30;5.25;;;;;;;;;;4430950;32;20200;-84
2022/08/05 05:07:05;;;;;;;9.23;5.53;;;;;;;;;;4430590;32;20329;-83
2022/08/05 05:09:32;;;;;;;6.55;5.57;;;;;;;;;;4430425;32;20328;-83
2022/08/05 05:11:58;;;;;;;5.62;4.47;;;;;;;;;;4416494;32;20271;-84
2022/08/05 05:14:24;;;;;;;7.97;4.93;;;;;;;;;;4430589;32;20555;-84
2022/08/05 05:16:50;;;;;;;5.40;4.87;;;;;;;;;;4404003;32;20256;-85
2022/08/05 05:19:15;;;;;;;6.55;5.20;;;;;;;;;;4430790;32;20205;-82
2022/08/05 05:21:41;;;;;;;6.12;4.80;;;;;;;;;;4431081;32;20220;-82
2022/08/05 05:24:07;;;;;;;9.95;5.30;;;;;;;;;;4430545;32;20924;-83
2022/08/05 05:26:32;;;;;;;9.80;5.43;;;;;;;;;;4435535;32;20766;-83
2022/08/05 05:28:57;;;;;;;9.13;5.03;;;;;;;;;;4445595;32;20201;-83
2022/08/05 05:31:23;;;;;;;8.68;5.15;;;;;;;;;;4445997;32;20722;-84
2022/08/05 05:33:49;;;;;;;12.15;4.62;;;;;;;;;;4445538;32;20224;-85
2022/08/05 05:36:14;;;;;;;5.47;4.97;;;;;;;;;;4446089;32;20305;-83
2022/08/05 05:38:40;;;;;;;8.25;5.37;;;;;;;;;;4445538;32;20233;-84
2022/08/05 05:41:06;;;;;;;9.82;5.45;;;;;;;;;;4445845;32;20220;-85
2022/08/05 05:43:31;;;;;;;8.45;5.15;;;;;;;;;;4431640;32;20281;-88
2022/08/05 05:45:58;;;;;;;7.37;5.55;;;;;;;;;;4445807;32;20224;-82
2022/08/05 05:48:23;;;;;;;11.25;5.82;;;;;;;;;;4445452;32;20220;-83
2022/08/05 05:50:51;;;;;;;8.80;6.35;;;;;;;;;;4445885;32;20531;-83
2022/08/05 05:53:16;;;;;;;7.85;5.40;;;;;;;;;;4445660;32;20939;-82
2022/08/05 05:55:42;;;;;;;10.95;5.55;;;;;;;;;;4445853;32;20254;-81
2022/08/05 05:58:07;;;;;;;8.57;6.47;;;;;;;;;;4445699;32;20253;-81
2022/08/05 06:00:33;;;;;;;11.77;5.87;;;;;;;;;;4445671;32;20326;-82
2022/08/05 06:03:01;;;;;;;11.82;6.28;;;;;;;;;;4445730;32;20274;-82
2022/08/05 06:05:26;;;;;;;7.75;6.70;;;;;;;;;;4446024;32;20232;-82
2022/08/05 06:07:52;;;;;;;9.88;5.68;;;;;;;;;;4432114;32;20285;-82
2022/08/05 06:10:17;;;;;;;8.68;6.07;;;;;;;;;;4445914;32;20205;-82
2022/08/05 06:12:42;;;;;;;16.20;6.28;;;;;;;;;;4432947;32;20805;-82
2022/08/05 06:15:08;;;;;;;8.85;6.30;;;;;;;;;;4430014;32;20212;-80
2022/08/05 06:17:34;;;;;;;11.48;6.22;;;;;;;;;;4430688;32;20583;-82
2022/08/05 06:20:00;;;;;;;18.67;7.35;;;;;;;;;;4430714;32;20239;-80
2022/08/05 06:22:33;;;;;;;7.55;6.37;;;;;;;;;;4430862;32;20232;-79
2022/08/05 06:24:59;;;;;;;20.77;6.75;;;;;;;;;;4430305;32;20227;-78
2022/08/05 06:27:24;;;;;;;9.05;6.75;;;;;;;;;;4440944;32;20205;-82
2022/08/05 06:29:50;;;;;;;8.38;5.93;;;;;;;;;;4445898;32;20232;-81
2022/08/05 06:32:15;;;;;;;7.00;5.68;;;;;;;;;;4445584;32;20220;-82
2022/08/05 06:34:42;;;;;;;10.13;5.65;;;;;;;;;;4434567;32;20228;-81
2022/08/05 06:37:08;;;;;;;11.77;6.00;;;;;;;;;;4419897;32;20300;-82
2022/08/05 06:39:33;;;;;;;14.23;7.62;;;;;;;;;;4443500;32;20626;-81
2022/08/05 06:42:01;;;;;;;12.27;6.07;;;;;;;;;;4443087;32;20232;-80
2022/08/05 06:44:27;;;;;;;15.70;5.62;;;;;;;;;;4419734;32;20311;-81
2022/08/05 06:46:53;;;;;;;8.13;5.55;;;;;;;;;;4446866;32;20267;-83
2022/08/05 06:49:19;;;;;;;13.80;5.37;;;;;;;;;;4447207;32;20208;-80
2022/08/05 06:51:44;;;;;;;13.93;4.93;;;;;;;;;;4448642;32;20390;-80
2022/08/05 06:54:10;;;;;;;8.77;5.30;;;;;;;;;;4444432;32;20212;-80
2022/08/05 06:56:36;;;;;;;9.70;5.28;;;;;;;;;;4448205;32;20216;-80
2022/08/05 06:59:05;;;;;;;5.43;4.65;;;;;;;;;;4447681;32;20682;-80
2022/08/05 07:01:31;;;;;;;6.20;5.60;;;;;;;;;;4448163;32;20225;-79
2022/08/05 07:03:56;;;;;;;6.10;5.18;;;;;;;;;;4433893;32;20333;-80
2022/08/05 07:06:22;;;;;;;8.93;5.20;;;;;;;;;;4447965;32;20320;-80
2022/08/05 07:08:48;;;;;;;11.18;5.60;;;;;;;;;;4447412;32;20213;-81
2022/08/05 07:11:14;;;;;;;9.90;5.28;;;;;;;;;;4444712;32;20393;-84
2022/08/05 07:19:08;;;;;;;6.47;5.07;;;;;;;;;;4432395;32;20240;-80
2022/08/05 07:21:33;;;;;;;11.05;5.43;;;;;;;;;;4418572;32;20306;-80
2022/08/05 07:23:59;;;;;;;8.38;5.25;;;;;;;;;;4432258;32;20205;-79
2022/08/05 07:26:24;;;;;;;10.23;5.65;;;;;;;;;;4416844;32;20244;-80
2022/08/05 07:28:49;;;;;;;6.75;5.70;;;;;;;;;;4429098;32;20243;-83
2022/08/05 07:31:16;;;;;;;14.80;5.97;;;;;;;;;;4432184;32;20217;-84
2022/08/05 07:33:42;;;;;;;8.27;5.62;;;;;;;;;;4418105;32;20313;-81
2022/08/05 07:36:07;;;;;;;9.60;5.57;;;;;;;;;;4432443;32;20644;-81
2022/08/05 07:38:34;;;;;;;11.10;4.68;;;;;;;;;;4418093;32;20245;-82
2022/08/05 07:41:02;;;;;;;11.98;4.85;;;;;;;;;;4418414;32;20402;-80
2022/08/05 07:43:27;;;;;;;7.03;4.80;;;;;;;;;;4417758;32;20236;-84
2022/08/05 07:45:53;;;;;;;12.77;4.90;;;;;;;;;;4431504;32;20246;-80
2022/08/05 07:48:18;;;;;;;7.82;4.80;;;;;;;;;;4418215;32;20272;-80
2022/08/05 07:50:44;;;;;;;8.32;4.22;;;;;;;;;;4417948;32;20236;-80
2022/08/05 07:53:09;;;;;;;6.95;5.12;;;;;;;;;;4438358;32;20196;-79
2022/08/05 07:55:35;;;;;;;6.57;4.95;;;;;;;;;;4446966;32;20289;-80
2022/08/05 07:58:01;;;;;;;7.57;4.85;;;;;;;;;;4446908;32;20227;-80
2022/08/05 08:00:27;;;;;;;13.15;4.68;;;;;;;;;;4446649;32;20235;-81
2022/08/05 08:02:53;;;;;;;8.68;4.57;;;;;;;;;;4446368;32;20224;-80
2022/08/05 08:05:18;;;;;;;8.88;4.75;;;;;;;;;;4447012;32;20327;-80
2022/08/05 08:07:44;;;;;;;8.27;4.53;;;;;;;;;;4447443;32;20347;-81
2022/08/05 08:10:09;;;;;;;4.43;4.03;;;;;;;;;;4446645;32;20212;-81
2022/08/05 08:12:35;;;;;;;6.60;5.25;;;;;;;;;;4436157;32;20273;-81
2022/08/05 08:15:01;;;;;;;8.65;4.82;;;;;;;;;;4431712;32;20200;-80
2022/08/05 08:17:26;;;;;;;6.53;5.07;;;;;;;;;;4431486;32;20232;-80
2022/08/05 08:19:51;;;;;;;6.10;4.68;;;;;;;;;;4431894;32;20197;-82
2022/08/05 08:22:17;;;;;;;6.07;4.32;;;;;;;;;;4431455;32;20224;-80
2022/08/05 08:24:43;;;;;;;8.45;5.07;;;;;;;;;;4431440;32;20246;-79
2022/08/05 08:27:08;;;;;;;8.48;5.07;;;;;;;;;;4430938;32;20229;-82
2022/08/05 08:29:34;;;;;;;8.55;4.05;;;;;;;;;;4431335;32;20264;-78
2022/08/05 08:31:59;;;;;;;5.95;4.72;;;;;;;;;;4430676;32;20305;-79
2022/08/05 08:34:26;;;;;;;7.35;4.72;;;;;;;;;;4431293;32;20197;-80
2022/08/05 08:36:51;;;;;;;6.03;4.00;;;;;;;;;;4431103;32;20233;-80
2022/08/05 08:39:18;;;;;;;10.43;3.50;;;;;;;;;;4431006;32;20259;-80
2022/08/05 08:41:47;;;;;;;9.80;4.35;;;;;;;;;;4418638;32;20263;-80
2022/08/05 08:44:17;;;;;;;8.85;3.85;;;;;;;;;;4430824;32;20768;-80
2022/08/05 08:46:44;;;;;;;11.68;4.32;;;;;;;;;;4430857;32;20277;-80
2022/08/05 08:49:12;;;;;;;7.03;3.92;;;;;;;;;;4430599;32;20726;-80
2022/08/05 08:51:40;;;;;;;10.07;3.75;;;;;;;;;;4430868;32;20286;-80
2022/08/05 08:54:05;;;;;;;6.97;3.75;;;;;;;;;;4442825;32;20300;-80
2022/08/05 08:56:31;;;;;;;3.95;3.53;;;;;;;;;;4445768;32;20308;-80
2022/08/05 08:58:59;;;;;;;4.22;2.97;;;;;;;;;;4442058;32;20329;-79
2022/08/05 09:01:25;;;;;;;8.77;3.37;;;;;;;;;;4430231;32;20300;-80
2022/08/05 09:03:52;;;;;;;7.03;3.95;;;;;;;;;;4416481;32;20672;-80
2022/08/05 09:06:18;;;;;;;4.20;3.12;;;;;;;;;;4430415;32;20233;-80
2022/08/05 09:08:44;;;;;;;5.65;4.15;;;;;;;;;;4429325;32;20605;-81
2022/08/05 09:11:11;;;;;;;3.05;2.75;;;;;;;;;;4429848;32;20267;-79
2022/08/05 09:13:38;;;;;;;3.42;3.03;;;;;;;;;;4430049;32;20310;-79
2022/08/05 09:16:07;;;;;;;6.30;2.97;;;;;;;;;;4416229;32;20283;-79
2022/08/05 09:18:34;;;;;;;3.75;2.85;;;;;;;;;;4430084;32;20201;-79
2022/08/05 09:21:00;;;;;;;6.45;2.83;;;;;;;;;;4430217;32;21099;-80
2022/08/05 09:23:26;;;;;;;2.90;2.65;;;;;;;;;;4430684;32;20217;-80
2022/08/05 09:26:05;;;;;;;4.40;2.70;;;;;;;;;;4430151;32;20229;-79
2022/08/05 09:28:31;;;;;;;4.07;2.62;;;;;;;;;;4429772;32;20744;-79
2022/08/05 09:31:04;;;;;;;6.12;2.55;;;;;;;;;;4429697;32;20353;-79
2022/08/05 09:33:30;;;;;;;2.78;2.45;;;;;;;;;;4429934;32;20244;-80
2022/08/05 09:36:04;;;;;;;6.20;2.62;;;;;;;;;;4431513;32;20280;-81
2022/08/05 09:38:31;;;;;;;5.53;2.72;;;;;;;;;;4442859;32;20655;-82
2022/08/05 09:41:05;;;;;;;2.70;2.25;;;;;;;;;;4432278;32;20274;-80
2022/08/05 09:43:36;;;;;;;8.30;2.50;;;;;;;;;;4432439;32;20671;-80
2022/08/05 09:46:05;;;;;;;5.18;2.90;;;;;;;;;;4445118;32;20228;-80
2022/08/05 09:48:34;;;;;;;2.40;2.10;;;;;;;;;;4445504;32;20264;-80
2022/08/05 09:51:05;;;;;;;2.72;2.20;;;;;;;;;;4445669;32;20648;-80
2022/08/05 09:53:50;;;;;;;4.00;2.60;;;;;;;;;;4433987;32;20239;-80
2022/08/05 09:56:38;;;;;;;7.68;3.10;;;;;;;;;;4415921;32;20584;-81
2022/08/05 09:59:09;;;;;;;4.82;2.60;;;;;;;;;;4430425;32;20219;-79
2022/08/05 10:01:39;;;;;;;5.45;2.20;;;;;;;;;;4416603;32;20609;-79
2022/08/05 10:04:06;;;;;;;3.47;2.12;;;;;;;;;;4430294;32;20243;-79
2022/08/05 10:06:32;;;;;;;3.70;2.42;;;;;;;;;;4430457;32;20249;-80
2022/08/05 10:09:10;;;;;;;10.90;2.87;;;;;;;;;;4429888;32;20280;-79
2022/08/05 10:11:35;;;;;;;3.55;2.45;;;;;;;;;;4429712;32;20660;-79
2022/08/05 10:14:23;;;;;;;8.98;2.28;;;;;;;;;;4429884;32;20239;-79
2022/08/05 10:16:49;;;;;;;2.45;2.22;;;;;;;;;;4430096;32;20668;-80
2022/08/05 10:19:15;;;;;;;2.72;1.73;;;;;;;;;;4431633;32;20205;-80
2022/08/05 10:21:41;;;;;;;6.57;2.30;;;;;;;;;;4418734;32;20236;-80
2022/08/05 10:24:11;;;;;;;3.67;1.87;;;;;;;;;;4419679;32;20370;-80
2022/08/05 10:26:43;;;;;;;6.47;2.22;;;;;;;;;;4432273;32;20561;-80
2022/08/05 10:29:08;;;;;;;5.53;1.90;;;;;;;;;;4432927;32;20242;-80
2022/08/05 10:31:35;;;;;;;5.55;2.17;;;;;;;;;;4432889;32;20270;-80
2022/08/05 10:34:00;;;;;;;3.95;2.15;;;;;;;;;;4432559;32;20297;-80
2022/08/05 10:36:26;;;;;;;5.07;1.90;;;;;;;;;;4433162;32;20253;-81
2022/08/05 10:39:00;;;;;;;4.70;2.15;;;;;;;;;;4433154;32;20247;-81
2022/08/05 10:41:42;;;;;;;4.57;2.20;;;;;;;;;;4432324;32;20217;-81
2022/08/05 10:44:14;;;;;;;2.90;2.10;;;;;;;;;;4433967;32;20271;-81
2022/08/05 10:46:54;;;;;;;3.10;2.12;;;;;;;;;;4448242;32;20254;-81
2022/08/05 10:49:22;;;;;;;4.43;2.17;;;;;;;;;;4447862;32;20865;-81
2022/08/05 10:51:56;;;;;;;2.15;1.62;;;;;;;;;;4433915;32;20649;-80
2022/08/05 10:54:22;;;;;;;1.73;1.62;;;;;;;;;;4448127;32;20204;-80
2022/08/05 10:56:54;;;;;;;3.45;1.95;;;;;;;;;;4433362;32;20344;-79
2022/08/05 10:59:31;;;;;;;2.60;1.67;;;;;;;;;;4447904;32;20209;-79
2022/08/05 11:02:13;;;;;;;2.15;1.70;;;;;;;;;;4447189;32;20615;-80
2022/08/05 11:04:47;;;;;;;3.60;2.00;;;;;;;;;;4448061;32;20220;-81
2022/08/05 11:07:16;;;;;;;2.00;1.60;;;;;;;;;;4434578;32;20672;-81
2022/08/05 11:09:49;;;;;;;2.40;2.08;;;;;;;;;;4447649;32;20368;-81
2022/08/05 11:12:33;;;;;;;2.20;1.70;;;;;;;;;;4447192;32;20354;-81
2022/08/05 11:15:19;;;;;;;3.37;1.73;;;;;;;;;;4447930;32;20221;-82
2022/08/05 11:17:52;;;;;;;2.05;1.62;;;;;;;;;;4447707;32;20209;-81
2022/08/05 11:20:33;;;;;;;6.43;1.70;;;;;;;;;;4448001;32;20196;-81
2022/08/05 11:22:59;;;;;;;3.80;2.10;;;;;;;;;;4436553;32;20252;-82
2022/08/05 11:25:30;;;;;;;2.20;2.00;;;;;;;;;;4431717;32;20220;-81
2022/08/05 11:28:08;;;;;;;4.57;1.87;;;;;;;;;;4432061;32;20231;-81
2022/08/05 11:30:54;;;;;;;5.62;2.28;;;;;;;;;;4430681;32;20295;-79
2022/08/05 11:33:56;;;;;;;2.97;1.85;;;;;;;;;;4399906;32;20260;-80
2022/08/05 11:36:38;;;;;;;2.30;2.10;;;;;;;;;;4399948;32;20593;-82
2022/08/05 11:39:04;;;;;;;4.50;1.77;;;;;;;;;;4432524;32;20228;-82
2022/08/05 11:41:30;;;;;;;6.30;2.50;;;;;;;;;;4433029;32;20256;-82
2022/08/05 11:44:00;;;;;;;5.30;2.55;;;;;;;;;;4439433;32;20470;-83
2022/08/05 11:46:27;;;;;;;2.00;1.80;;;;;;;;;;4448115;32;20251;-80
2022/08/05 11:48:54;;;;;;;1.67;1.55;;;;;;;;;;4446970;32;20238;-81
2022/08/05 11:51:20;;;;;;;3.22;1.77;;;;;;;;;;4433669;32;20305;-80
2022/08/05 11:53:47;;;;;;;1.80;1.60;;;;;;;;;;4447750;32;20205;-80
2022/08/05 11:56:14;;;;;;;7.87;2.12;;;;;;;;;;4432752;32;20873;-83
2022/08/05 11:58:42;;;;;;;3.50;1.67;;;;;;;;;;4433127;32;20263;-80
2022/08/05 12:01:11;;;;;;;3.90;1.60;;;;;;;;;;4447339;32;20324;-80
2022/08/05 12:03:43;;;;;;;3.03;2.05;;;;;;;;;;4447252;32;20283;-81
2022/08/05 12:06:10;;;;;;;2.47;1.95;;;;;;;;;;4447067;32;20363;-81
2022/08/05 12:08:53;;;;;;;4.15;2.40;;;;;;;;;;4432934;32;20221;-80
2022/08/05 12:11:25;;;;;;;5.72;2.22;;;;;;;;;;4443066;32;20263;-80
2022/08/05 12:14:02;;;;;;;2.92;2.20;;;;;;;;;;4431504;32;20196;-80
2022/08/05 12:16:31;;;;;;;4.12;2.35;;;;;;;;;;4431096;32;20333;-80
2022/08/05 12:18:57;;;;;;;4.20;2.05;;;;;;;;;;4431378;32;20351;-80
2022/08/05 12:21:34;;;;;;;4.68;2.00;;;;;;;;;;4431803;32;20709;-82
2022/08/05 12:24:03;;;;;;;5.40;2.58;;;;;;;;;;4417495;32;20310;-83
2022/08/05 12:26:37;;;;;;;3.12;2.37;;;;;;;;;;4430089;32;20248;-86
2022/08/05 12:29:10;;;;;;;4.10;2.10;;;;;;;;;;4416736;32;20788;-83
2022/08/05 12:31:35;;;;;;;3.30;2.05;;;;;;;;;;4429347;32;20308;-85
2022/08/05 12:34:02;;;;;;;2.97;2.20;;;;;;;;;;4429750;32;20238;-86
2022/08/05 12:36:28;;;;;;;4.78;1.90;;;;;;;;;;4429560;32;20253;-84
2022/08/05 12:38:56;;;;;;;2.92;2.10;;;;;;;;;;4429324;32;20237;-84
2022/08/05 12:41:21;;;;;;;7.90;2.50;;;;;;;;;;4429392;32;20293;-84
2022/08/05 12:43:56;;;;;;;3.37;2.20;;;;;;;;;;4435260;32;20735;-84
2022/08/05 12:46:25;;;;;;;2.92;2.42;;;;;;;;;;4430993;32;20204;-83
2022/08/05 12:49:10;;;;;;;4.87;2.70;;;;;;;;;;4431004;32;20240;-84
2022/08/05 12:51:57;;;;;;;3.22;2.03;;;;;;;;;;4431426;32;20299;-83
2022/08/05 12:54:25;;;;;;;2.50;2.20;;;;;;;;;;4417089;32;20394;-82
2022/08/05 12:56:53;;;;;;;3.72;2.17;;;;;;;;;;4430593;32;20236;-84
2022/08/05 12:59:43;;;;;;;3.65;2.25;;;;;;;;;;4430836;32;20401;-83
2022/08/05 13:02:11;;;;;;;6.87;2.40;;;;;;;;;;4407864;32;20869;-83
2022/08/05 13:04:39;;;;;;;5.87;2.50;;;;;;;;;;4431020;32;20240;-84
2022/08/05 13:07:11;;;;;;;5.25;1.98;;;;;;;;;;4417084;32;20233;-84
2022/08/05 13:09:47;;;;;;;2.40;2.08;;;;;;;;;;4430345;32;20701;-87
2022/08/05 13:12:15;;;;;;;2.20;2.03;;;;;;;;;;4430819;32;20209;-88
2022/08/05 13:14:44;;;;;;;6.50;2.70;;;;;;;;;;4430998;32;20430;-88
2022/08/05 13:17:22;;;;;;;3.40;2.37;;;;;;;;;;4416473;32;20249;-87
2022/08/05 13:20:08;;;;;;;4.15;2.25;;;;;;;;;;4416735;32;20347;-88
2022/08/05 13:22:36;;;;;;;12.95;11.43;;;;;;;;;;4438004;32;20356;-89
2022/08/05 13:25:07;;;;;;;6.53;3.37;;;;;;;;;;4445796;32;20252;-84
2022/08/05 13:27:35;;;;;;;7.62;3.00;;;;;;;;;;4446443;32;20268;-87
2022/08/05 13:30:03;;;;;;;6.22;2.92;;;;;;;;;;4444234;32;20221;-88
2022/08/05 13:32:28;;;;;;;5.70;2.28;;;;;;;;;;4431317;32;20259;-91
2022/08/05 13:34:54;;;;;;;3.25;2.60;;;;;;;;;;4430956;32;20227;-85
2022/08/05 13:37:21;;;;;;;2.72;2.50;;;;;;;;;;4431218;32;20205;-87
2022/08/05 13:39:48;;;;;;;3.10;2.25;;;;;;;;;;4416192;32;20811;-87
2022/08/05 13:42:14;;;;;;;5.62;2.03;;;;;;;;;;4430426;32;20539;-85
2022/08/05 13:44:43;;;;;;;6.70;2.17;;;;;;;;;;4435433;32;20277;-87
2022/08/05 13:47:08;;;;;;;3.47;2.10;;;;;;;;;;4445791;32;20288;-86
2022/08/05 13:49:33;;;;;;;2.42;1.90;;;;;;;;;;4431287;32;20267;-79
2022/08/05 13:52:10;;;;;;;4.72;2.65;;;;;;;;;;4445201;32;20304;-80
2022/08/05 13:54:37;;;;;;;2.83;2.60;;;;;;;;;;4447151;32;20256;-81
2022/08/05 13:57:02;;;;;;;4.87;1.90;;;;;;;;;;4448825;32;20637;-81
2022/08/05 13:59:28;;;;;;;4.10;2.12;;;;;;;;;;4448634;32;20251;-81
2022/08/05 14:01:54;;;;;;;3.92;2.37;;;;;;;;;;4448999;32;20556;-81
2022/08/05 14:07:04;;;;;;;3.25;2.17;;;;;;;;;;4449325;32;20285;-82
2022/08/05 14:09:30;;;;;;;7.15;2.37;;;;;;;;;;4448497;32;20240;-83
2022/08/05 14:11:56;;;;;;;2.75;2.03;;;;;;;;;;4440966;32;20350;-84
2022/08/05 14:14:21;;;;;;;4.18;2.35;;;;;;;;;;4433644;32;20220;-80
2022/08/05 14:16:49;;;;;;;4.37;2.22;;;;;;;;;;4433271;32;20292;-81
2022/08/05 14:19:15;;;;;;;2.75;2.35;;;;;;;;;;4443295;32;20216;-82
2022/08/05 14:21:41;;;;;;;4.45;2.37;;;;;;;;;;4435230;32;20869;-81
2022/08/05 14:24:09;;;;;;;3.37;1.75;;;;;;;;;;4435028;32;20823;-82
2022/08/05 14:26:36;;;;;;;3.20;2.22;;;;;;;;;;4448627;32;20232;-81
2022/08/05 14:29:03;;;;;;;5.70;2.10;;;;;;;;;;4436036;32;20890;-81
2022/08/05 14:31:30;;;;;;;2.78;2.22;;;;;;;;;;4436656;32;20274;-81
2022/08/05 14:33:57;;;;;;;6.25;3.22;;;;;;;;;;4419059;32;20220;-82
2022/08/05 14:36:22;;;;;;;3.80;2.75;;;;;;;;;;4418759;32;20624;-83
2022/08/05 14:38:50;;;;;;;3.17;2.30;;;;;;;;;;4419420;32;20237;-83
2022/08/05 14:41:16;;;;;;;10.77;2.80;;;;;;;;;;4432586;32;20324;-82
2022/08/05 14:43:41;;;;;;;10.60;2.50;;;;;;;;;;4433352;32;20277;-82
2022/08/05 14:46:08;;;;;;;3.78;2.35;;;;;;;;;;4429716;32;20335;-81
2022/08/05 14:48:34;;;;;;;2.97;2.55;;;;;;;;;;4432543;32;20248;-81
2022/08/05 14:50:59;;;;;;;4.07;2.60;;;;;;;;;;4432669;32;20280;-82
2022/08/05 14:53:25;;;;;;;17.67;3.37;;;;;;;;;;4432931;32;20253;-82
2022/08/05 14:55:50;;;;;;;6.65;2.58;;;;;;;;;;4405573;32;20297;-82
2022/08/05 14:58:17;;;;;;;6.68;2.97;;;;;;;;;;4432917;32;20274;-82